ユジノサハリンスク の空港の天気 - METARとTAF

ホムトヴォ空港(ユジノサハリンスク) ( UHSS / UUS ) - ロシア ユジノサハリンスク
飛行場実況気象(Metar)
観測時間06/29 11:30 VLAT (06/29 01:30 UTC)
風向・風速南南東 4m/s
視程8000m
天気現象
全天を覆う雲 雲底高度 90m
気温14℃
湿度100%
気圧1011hPa
METARUHSS 290130Z 16004MPS 8000 OVC003 14/14 Q1011 R19/CLRD70 NOSIG RMK QBB100 MT OBSC QFE757/1009
過去の天気等 Google飛行場航空写真 Wunderground天気予報

過去48時間のMETAR

飛行場予報(TAF)
発表時間: 6/29 09:00 VLAT (6/28 23:00 UTC)
予報対象時間: 29日10時 VLAT ~ 30日16時 VLAT
風向・風速南 6m/s
視程10km以上
全天の8割程度の雲 雲底高度 120m
29日10時 VLAT ~ 29日15時 VLAT に一時的に
全天の8割程度の雲 雲底高度 90m
29日15時 VLAT ~ 29日18時 VLAT に徐々に
視程5,000m
天気現象弱いしゅう雨
全天の8割程度の雲 雲底高度 180m
全天の8割程度の積乱雲 雲底高度 520m
29日15時 VLAT ~ 30日16時 VLAT に一時的に
視程1,400m
天気現象しゅう雨 もや
全天の8割程度の雲 雲底高度 120m
全天の8割程度の積乱雲 雲底高度 460m
TAF COR UHSS 282300Z 2900/3006 19006MPS 9999 BKN004
TEMPO 2900/2905 BKN003
BECMG 2905/2908 5000 -SHRA BKN006 BKN017CB
TEMPO 2905/3006 1400 SHRA BR BKN004 BKN015CB